Nautilus — ISPC — position and weather

sailwx.info

Track history (hours):
 
Tides and Currents Weather Stations Pressure Air Temp Water Temp Dewpoint Dewpoint Depression Visibility Wind Speed Wind Dir Waves Ship Positions

Nautilus

Last reported at 2015-Sep-30 07:31 UTC. Time now 2016-Feb-06 23:27 UTC.
Position N 42°49' E 010°12'.
Warning: this ship's position is months out of date.

Length 25 m.

Type: Passenger vessel. MMSI: 247205700.

Date/timePositionNaut miles runAvg speedWind from/ knotsBaromVisibWave heightAir tempDewpointWater temp
2015-Sep-30 07:31N 42°49' E 010°12'0 0.0
2015-Sep-30 06:32N 42°49' E 010°12'0 0.0
2015-Sep-29 22:33N 42°49' E 010°12'0 0.0
2015-Sep-29 20:33N 42°49' E 010°12'0 0.0
2015-Sep-29 19:31N 42°49' E 010°12'0 0.0
2015-Sep-29 16:11N 42°49' E 010°12'0 0.0
2015-Sep-29 15:05N 42°49' E 010°12'0 0.0
2015-Sep-29 14:28N 42°49' E 010°12'0 0.0
2015-Sep-29 09:31N 42°49' E 010°12'0 0.0
2015-Sep-29 07:29N 42°49' E 010°12'0 0.0
2015-Sep-29 06:29N 42°49' E 010°12'0 0.0
2015-Sep-29 05:08N 42°49' E 010°12'0 0.0
2015-Sep-29 02:23N 42°49' E 010°12'0 0.0
2015-Sep-29 01:33N 42°49' E 010°12'0 0.0
2015-Sep-29 00:31N 42°49' E 010°12'0 0.0
2015-Sep-28 23:31N 42°49' E 010°12'0 0.0
2015-Sep-28 22:16N 42°49' E 010°12'0 0.0
2015-Sep-28 21:32N 42°49' E 010°12'0 0.0
2015-Sep-28 20:11N 42°49' E 010°12'0 0.0
2015-Sep-28 19:33N 42°49' E 010°12'0 0.0
2015-Sep-28 18:27N 42°49' E 010°12'0 0.0
2015-Sep-28 15:28N 42°49' E 010°12'0 0.0
2015-Sep-28 00:28N 42°49' E 010°12'0 0.0
2015-Sep-27 22:29N 42°49' E 010°12'0 0.0
2015-Sep-27 20:18N 42°49' E 010°12'0 0.0
2015-Sep-27 19:30N 42°49' E 010°12'0 0.0
2015-Sep-27 18:33N 42°49' E 010°12'0 0.0
2015-Sep-27 16:17N 42°49' E 010°12'0 0.0
2015-Sep-27 14:15N 42°49' E 010°12'0 0.2
2015-Sep-27 13:31N 42°48' E 010°12'0 0.0
2015-Sep-27 12:33N 42°48' E 010°12'0 0.1
2015-Sep-27 07:18N 42°49' E 010°12'0 0.6
2015-Sep-27 06:33N 42°49' E 010°12'0 0.0
2015-Sep-27 05:33N 42°49' E 010°12'0 0.0
2015-Sep-27 04:31N 42°49' E 010°12'0 0.0
2015-Sep-27 03:33N 42°49' E 010°12'0 0.0
2015-Sep-27 02:33N 42°49' E 010°12'0 0.0
2015-Sep-27 01:33N 42°49' E 010°12'0 0.0
2015-Sep-27 00:33N 42°49' E 010°12'0 0.0
2015-Sep-26 23:31N 42°49' E 010°12'0 0.0
2015-Sep-26 22:30N 42°49' E 010°12'0 0.0
2015-Sep-26 21:26N 42°49' E 010°12'0 0.0
2015-Sep-26 20:33N 42°49' E 010°12'0 0.0
2015-Sep-26 19:33N 42°49' E 010°12'0 0.0
2015-Sep-26 18:25N 42°49' E 010°12'0 0.0
2015-Sep-26 17:33N 42°49' E 010°12'0 0.0
2015-Sep-26 16:33N 42°49' E 010°12'0 0.0
2015-Sep-26 15:33N 42°49' E 010°12'0 0.0
2015-Sep-26 14:33N 42°49' E 010°12'0 0.0
2015-Sep-26 12:30N 42°49' E 010°12'0 0.0
2015-Sep-26 11:32N 42°49' E 010°12'0 0.0
2015-Sep-26 10:33N 42°49' E 010°12'0 0.0
2015-Sep-26 09:32N 42°49' E 010°12'0 0.0
2015-Sep-26 08:30N 42°49' E 010°12'0 0.0
2015-Sep-26 07:30N 42°49' E 010°12'0 0.0
2015-Sep-26 06:29N 42°49' E 010°12'0 0.0
2015-Sep-26 05:33N 42°49' E 010°12'0 0.0
2015-Sep-26 04:33N 42°49' E 010°12'0 0.0
2015-Sep-26 03:33N 42°49' E 010°12'0 0.0
2015-Sep-26 02:33N 42°49' E 010°12'0 0.0
2015-Sep-26 01:33N 42°49' E 010°12'0 0.0
2015-Sep-26 00:32N 42°49' E 010°12'0 0.0
2015-Sep-25 23:33N 42°49' E 010°12'0 0.0
2015-Sep-25 22:33N 42°49' E 010°12'0 0.0
2015-Sep-25 21:29N 42°49' E 010°12'0 0.0
2015-Sep-25 20:33N 42°49' E 010°12'0 0.0
2015-Sep-25 19:32N 42°49' E 010°12'0 0.0
2015-Sep-25 18:33N 42°49' E 010°12'0 0.0
2015-Sep-25 17:23N 42°49' E 010°12'0 0.0
2015-Sep-25 16:25N 42°49' E 010°12'2 2.9
2015-Sep-25 15:33N 42°49' E 010°08'3 2.4
2015-Sep-25 14:20N 42°46' E 010°06'5 5.9
2015-Sep-25 13:33N 42°48' E 010°12'0 0.0
2015-Sep-25 12:33N 42°48' E 010°12'0 0.1
2015-Sep-25 11:33N 42°48' E 010°12'1 0.2
2015-Sep-25 07:20N 42°49' E 010°13'1 0.1
2015-Sep-25 01:16N 42°49' E 010°12'0 0.0
2015-Sep-24 22:05N 42°49' E 010°12'0 0.0
2015-Sep-24 21:22N 42°49' E 010°12'0 0.0
2015-Sep-24 19:26N 42°49' E 010°12'0 0.0
2015-Sep-24 18:30N 42°49' E 010°12'0 0.0
2015-Sep-24 17:21N 42°49' E 010°12'0 0.0
2015-Sep-24 16:33N 42°49' E 010°12'0 0.0
2015-Sep-24 15:21N 42°49' E 010°12'0 0.0
2015-Sep-24 14:20N 42°49' E 010°12'0 0.0
2015-Sep-24 12:19N 42°49' E 010°12'0 0.0
2015-Sep-24 10:20N 42°49' E 010°12'0 0.0
2015-Sep-24 09:32N 42°49' E 010°12'0 0.0
2015-Sep-24 08:12N 42°49' E 010°12'0 0.0
2015-Sep-24 07:32N 42°49' E 010°12'0 0.0
2015-Sep-24 06:20N 42°49' E 010°12'0 0.0
2015-Sep-24 05:32N 42°49' E 010°12'0 0.0
2015-Sep-24 04:33N 42°49' E 010°12'0 0.0
2015-Sep-24 03:31N 42°49' E 010°12'0 0.0
2015-Sep-24 01:10N 42°49' E 010°12'0 0.0
2015-Sep-24 00:19N 42°49' E 010°12'0 0.0
2015-Sep-23 23:27N 42°49' E 010°12'0 0.0
2015-Sep-23 22:23N 42°49' E 010°12'0 0.0
2015-Sep-23 21:33N 42°49' E 010°12'0 0.0
2015-Sep-23 15:29N 42°49' E 010°12'0 0.0
2015-Sep-23 13:27N 42°49' E 010°12'0 0.0
2015-Sep-23 12:06N 42°49' E 010°12'0 0.0
2015-Sep-23 09:33N 42°49' E 010°12'0 0.0
2015-Sep-23 05:27N 42°49' E 010°12'0 0.0
2015-Sep-23 04:33N 42°49' E 010°12'0 0.0
2015-Sep-23 03:30N 42°49' E 010°12'0 0.0
2015-Sep-23 02:26N 42°49' E 010°12'0 0.0
2015-Sep-23 01:32N 42°49' E 010°12'0 0.0
2015-Sep-23 00:20N 42°49' E 010°12'0 0.0
2015-Sep-22 23:29N 42°49' E 010°12'0 0.0
2015-Sep-22 20:33N 42°49' E 010°12'0 0.0
2015-Sep-22 19:14N 42°49' E 010°12'0 0.0
2015-Sep-22 17:07N 42°49' E 010°12'0 0.0
2015-Sep-22 16:33N 42°49' E 010°12'1 0.1
2015-Sep-22 11:33N 42°49' E 010°13'1 0.1
2015-Sep-22 07:05N 42°48' E 010°12'0 0.0
2015-Sep-22 05:28N 42°49' E 010°12'0 0.0
2015-Sep-22 04:31N 42°49' E 010°12'0 0.0
2015-Sep-22 03:32N 42°49' E 010°12'0 0.0
2015-Sep-22 02:33N 42°49' E 010°12'0 0.0
2015-Sep-22 01:33N 42°49' E 010°12'0 0.0
2015-Sep-22 00:31N 42°49' E 010°12'0 0.0
2015-Sep-21 23:24N 42°49' E 010°12'0 0.0
2015-Sep-21 22:33N 42°49' E 010°12'0 0.0
2015-Sep-21 21:28N 42°49' E 010°12'0 0.0
2015-Sep-21 20:32N 42°49' E 010°12'0 0.0
2015-Sep-21 19:33N 42°49' E 010°12'0 0.0
2015-Sep-21 18:33N 42°49' E 010°12'0 0.0
2015-Sep-21 17:33N 42°49' E 010°12'0 0.0
2015-Sep-21 16:08N 42°49' E 010°12'4 2.1
2015-Sep-21 14:11N 42°48' E 010°06'4 6.6
2015-Sep-21 13:33N 42°48' E 010°12'0 0.0
2015-Sep-21 11:21N 42°48' E 010°12'0 0.0
2015-Sep-21 10:33N 42°48' E 010°12'0 0.2
2015-Sep-21 09:33N 42°49' E 010°12'0 0.0
2015-Sep-21 08:33N 42°49' E 010°12'0 0.0
2015-Sep-21 07:33N 42°49' E 010°12'0 0.0
2015-Sep-21 06:33N 42°49' E 010°12'0 0.0
2015-Sep-21 05:32N 42°49' E 010°12'0 0.0
2015-Sep-21 04:32N 42°49' E 010°12'0 0.0
2015-Sep-21 03:32N 42°49' E 010°12'0 0.0
2015-Sep-21 02:30N 42°49' E 010°12'0 0.0
2015-Sep-21 01:33N 42°49' E 010°12'0 0.0
2015-Sep-21 00:33N 42°49' E 010°12'0 0.0
2015-Sep-20 23:33N 42°49' E 010°12'0 0.0
2015-Sep-20 22:32N 42°49' E 010°12'0 0.0
2015-Sep-20 21:33N 42°49' E 010°12'0 0.0
2015-Sep-20 20:33N 42°49' E 010°12'0 0.0
2015-Sep-20 19:33N 42°49' E 010°12'0 0.0
2015-Sep-20 18:33N 42°49' E 010°12'0 0.0
2015-Sep-20 17:33N 42°49' E 010°12'0 0.0
2015-Sep-20 16:33N 42°49' E 010°12'0 0.0
2015-Sep-20 15:33N 42°49' E 010°12'0 0.0
2015-Sep-20 14:33N 42°49' E 010°12'0 0.0
2015-Sep-20 13:33N 42°49' E 010°12'0 0.0
2015-Sep-20 12:33N 42°49' E 010°12'0 0.0
2015-Sep-20 11:33N 42°49' E 010°12'0 0.0
2015-Sep-20 10:33N 42°49' E 010°12'0 0.0
2015-Sep-20 09:33N 42°49' E 010°12'0 0.0
2015-Sep-20 08:22N 42°49' E 010°12'  
Track history (hours):
 
Tides and Currents Weather Stations Pressure Air Temp Water Temp Dewpoint Dewpoint Depression Visibility Wind Speed Wind Dir Waves Ship Positions

Nautilus

Last reported at 2015-Sep-30 07:31 UTC. Time now 2016-Feb-06 23:27 UTC.
Position N 42°49' E 010°12'.
Warning: this ship's position is months out of date.

Length 25 m.

Type: Passenger vessel. MMSI: 247205700.

Date/timePositionNaut miles runAvg speedWind from/ knotsBaromVisibWave heightAir tempDewpointWater temp
2015-Sep-30 07:31N 42°49' E 010°12'0 0.0
2015-Sep-30 06:32N 42°49' E 010°12'0 0.0
2015-Sep-29 22:33N 42°49' E 010°12'0 0.0
2015-Sep-29 20:33N 42°49' E 010°12'0 0.0
2015-Sep-29 19:31N 42°49' E 010°12'0 0.0
2015-Sep-29 16:11N 42°49' E 010°12'0 0.0
2015-Sep-29 15:05N 42°49' E 010°12'0 0.0
2015-Sep-29 14:28N 42°49' E 010°12'0 0.0
2015-Sep-29 09:31N 42°49' E 010°12'0 0.0
2015-Sep-29 07:29N 42°49' E 010°12'0 0.0
2015-Sep-29 06:29N 42°49' E 010°12'0 0.0
2015-Sep-29 05:08N 42°49' E 010°12'0 0.0
2015-Sep-29 02:23N 42°49' E 010°12'0 0.0
2015-Sep-29 01:33N 42°49' E 010°12'0 0.0
2015-Sep-29 00:31N 42°49' E 010°12'0 0.0
2015-Sep-28 23:31N 42°49' E 010°12'0 0.0
2015-Sep-28 22:16N 42°49' E 010°12'0 0.0
2015-Sep-28 21:32N 42°49' E 010°12'0 0.0
2015-Sep-28 20:11N 42°49' E 010°12'0 0.0
2015-Sep-28 19:33N 42°49' E 010°12'0 0.0
2015-Sep-28 18:27N 42°49' E 010°12'0 0.0
2015-Sep-28 15:28N 42°49' E 010°12'0 0.0
2015-Sep-28 00:28N 42°49' E 010°12'0 0.0
2015-Sep-27 22:29N 42°49' E 010°12'0 0.0
2015-Sep-27 20:18N 42°49' E 010°12'0 0.0
2015-Sep-27 19:30N 42°49' E 010°12'0 0.0
2015-Sep-27 18:33N 42°49' E 010°12'0 0.0
2015-Sep-27 16:17N 42°49' E 010°12'0 0.0
2015-Sep-27 14:15N 42°49' E 010°12'0 0.2
2015-Sep-27 13:31N 42°48' E 010°12'0 0.0
2015-Sep-27 12:33N 42°48' E 010°12'0 0.1
2015-Sep-27 07:18N 42°49' E 010°12'0 0.6
2015-Sep-27 06:33N 42°49' E 010°12'0 0.0
2015-Sep-27 05:33N 42°49' E 010°12'0 0.0
2015-Sep-27 04:31N 42°49' E 010°12'0 0.0
2015-Sep-27 03:33N 42°49' E 010°12'0 0.0
2015-Sep-27 02:33N 42°49' E 010°12'0 0.0
2015-Sep-27 01:33N 42°49' E 010°12'0 0.0
2015-Sep-27 00:33N 42°49' E 010°12'0 0.0
2015-Sep-26 23:31N 42°49' E 010°12'0 0.0
2015-Sep-26 22:30N 42°49' E 010°12'0 0.0
2015-Sep-26 21:26N 42°49' E 010°12'0 0.0
2015-Sep-26 20:33N 42°49' E 010°12'0 0.0
2015-Sep-26 19:33N 42°49' E 010°12'0 0.0
2015-Sep-26 18:25N 42°49' E 010°12'0 0.0
2015-Sep-26 17:33N 42°49' E 010°12'0 0.0
2015-Sep-26 16:33N 42°49' E 010°12'0 0.0
2015-Sep-26 15:33N 42°49' E 010°12'0 0.0
2015-Sep-26 14:33N 42°49' E 010°12'0 0.0
2015-Sep-26 12:30N 42°49' E 010°12'0 0.0
2015-Sep-26 11:32N 42°49' E 010°12'0 0.0
2015-Sep-26 10:33N 42°49' E 010°12'0 0.0
2015-Sep-26 09:32N 42°49' E 010°12'0 0.0
2015-Sep-26 08:30N 42°49' E 010°12'0 0.0
2015-Sep-26 07:30N 42°49' E 010°12'0 0.0
2015-Sep-26 06:29N 42°49' E 010°12'0 0.0
2015-Sep-26 05:33N 42°49' E 010°12'0 0.0
2015-Sep-26 04:33N 42°49' E 010°12'0 0.0
2015-Sep-26 03:33N 42°49' E 010°12'0 0.0
2015-Sep-26 02:33N 42°49' E 010°12'0 0.0
2015-Sep-26 01:33N 42°49' E 010°12'0 0.0
2015-Sep-26 00:32N 42°49' E 010°12'0 0.0
2015-Sep-25 23:33N 42°49' E 010°12'0 0.0
2015-Sep-25 22:33N 42°49' E 010°12'0 0.0
2015-Sep-25 21:29N 42°49' E 010°12'0 0.0
2015-Sep-25 20:33N 42°49' E 010°12'0 0.0
2015-Sep-25 19:32N 42°49' E 010°12'0 0.0
2015-Sep-25 18:33N 42°49' E 010°12'0 0.0
2015-Sep-25 17:23N 42°49' E 010°12'0 0.0
2015-Sep-25 16:25N 42°49' E 010°12'2 2.9
2015-Sep-25 15:33N 42°49' E 010°08'3 2.4
2015-Sep-25 14:20N 42°46' E 010°06'5 5.9
2015-Sep-25 13:33N 42°48' E 010°12'0 0.0
2015-Sep-25 12:33N 42°48' E 010°12'0 0.1
2015-Sep-25 11:33N 42°48' E 010°12'1 0.2
2015-Sep-25 07:20N 42°49' E 010°13'1 0.1
2015-Sep-25 01:16N 42°49' E 010°12'0 0.0
2015-Sep-24 22:05N 42°49' E 010°12'0 0.0
2015-Sep-24 21:22N 42°49' E 010°12'0 0.0
2015-Sep-24 19:26N 42°49' E 010°12'0 0.0
2015-Sep-24 18:30N 42°49' E 010°12'0 0.0
2015-Sep-24 17:21N 42°49' E 010°12'0 0.0
2015-Sep-24 16:33N 42°49' E 010°12'0 0.0
2015-Sep-24 15:21N 42°49' E 010°12'0 0.0
2015-Sep-24 14:20N 42°49' E 010°12'0 0.0
2015-Sep-24 12:19N 42°49' E 010°12'0 0.0
2015-Sep-24 10:20N 42°49' E 010°12'0 0.0
2015-Sep-24 09:32N 42°49' E 010°12'0 0.0
2015-Sep-24 08:12N 42°49' E 010°12'0 0.0
2015-Sep-24 07:32N 42°49' E 010°12'0 0.0
2015-Sep-24 06:20N 42°49' E 010°12'0 0.0
2015-Sep-24 05:32N 42°49' E 010°12'0 0.0
2015-Sep-24 04:33N 42°49' E 010°12'0 0.0
2015-Sep-24 03:31N 42°49' E 010°12'0 0.0
2015-Sep-24 01:10N 42°49' E 010°12'0 0.0
2015-Sep-24 00:19N 42°49' E 010°12'0 0.0
2015-Sep-23 23:27N 42°49' E 010°12'0 0.0
2015-Sep-23 22:23N 42°49' E 010°12'0 0.0
2015-Sep-23 21:33N 42°49' E 010°12'0 0.0
2015-Sep-23 15:29N 42°49' E 010°12'0 0.0
2015-Sep-23 13:27N 42°49' E 010°12'0 0.0
2015-Sep-23 12:06N 42°49' E 010°12'0 0.0
2015-Sep-23 09:33N 42°49' E 010°12'0 0.0
2015-Sep-23 05:27N 42°49' E 010°12'0 0.0
2015-Sep-23 04:33N 42°49' E 010°12'0 0.0
2015-Sep-23 03:30N 42°49' E 010°12'0 0.0
2015-Sep-23 02:26N 42°49' E 010°12'0 0.0
2015-Sep-23 01:32N 42°49' E 010°12'0 0.0
2015-Sep-23 00:20N 42°49' E 010°12'0 0.0
2015-Sep-22 23:29N 42°49' E 010°12'0 0.0
2015-Sep-22 20:33N 42°49' E 010°12'0 0.0
2015-Sep-22 19:14N 42°49' E 010°12'0 0.0
2015-Sep-22 17:07N 42°49' E 010°12'0 0.0
2015-Sep-22 16:33N 42°49' E 010°12'1 0.1
2015-Sep-22 11:33N 42°49' E 010°13'1 0.1
2015-Sep-22 07:05N 42°48' E 010°12'0 0.0
2015-Sep-22 05:28N 42°49' E 010°12'0 0.0
2015-Sep-22 04:31N 42°49' E 010°12'0 0.0
2015-Sep-22 03:32N 42°49' E 010°12'0 0.0
2015-Sep-22 02:33N 42°49' E 010°12'0 0.0
2015-Sep-22 01:33N 42°49' E 010°12'0 0.0
2015-Sep-22 00:31N 42°49' E 010°12'0 0.0
2015-Sep-21 23:24N 42°49' E 010°12'0 0.0
2015-Sep-21 22:33N 42°49' E 010°12'0 0.0
2015-Sep-21 21:28N 42°49' E 010°12'0 0.0
2015-Sep-21 20:32N 42°49' E 010°12'0 0.0
2015-Sep-21 19:33N 42°49' E 010°12'0 0.0
2015-Sep-21 18:33N 42°49' E 010°12'0 0.0
2015-Sep-21 17:33N 42°49' E 010°12'0 0.0
2015-Sep-21 16:08N 42°49' E 010°12'4 2.1
2015-Sep-21 14:11N 42°48' E 010°06'4 6.6
2015-Sep-21 13:33N 42°48' E 010°12'0 0.0
2015-Sep-21 11:21N 42°48' E 010°12'0 0.0
2015-Sep-21 10:33N 42°48' E 010°12'0 0.2
2015-Sep-21 09:33N 42°49' E 010°12'0 0.0
2015-Sep-21 08:33N 42°49' E 010°12'0 0.0
2015-Sep-21 07:33N 42°49' E 010°12'0 0.0
2015-Sep-21 06:33N 42°49' E 010°12'0 0.0
2015-Sep-21 05:32N 42°49' E 010°12'0 0.0
2015-Sep-21 04:32N 42°49' E 010°12'0 0.0
2015-Sep-21 03:32N 42°49' E 010°12'0 0.0
2015-Sep-21 02:30N 42°49' E 010°12'0 0.0
2015-Sep-21 01:33N 42°49' E 010°12'0 0.0
2015-Sep-21 00:33N 42°49' E 010°12'0 0.0
2015-Sep-20 23:33N 42°49' E 010°12'0 0.0
2015-Sep-20 22:32N 42°49' E 010°12'0 0.0
2015-Sep-20 21:33N 42°49' E 010°12'0 0.0
2015-Sep-20 20:33N 42°49' E 010°12'0 0.0
2015-Sep-20 19:33N 42°49' E 010°12'0 0.0
2015-Sep-20 18:33N 42°49' E 010°12'0 0.0
2015-Sep-20 17:33N 42°49' E 010°12'0 0.0
2015-Sep-20 16:33N 42°49' E 010°12'0 0.0
2015-Sep-20 15:33N 42°49' E 010°12'0 0.0
2015-Sep-20 14:33N 42°49' E 010°12'0 0.0
2015-Sep-20 13:33N 42°49' E 010°12'0 0.0
2015-Sep-20 12:33N 42°49' E 010°12'0 0.0
2015-Sep-20 11:33N 42°49' E 010°12'0 0.0
2015-Sep-20 10:33N 42°49' E 010°12'0 0.0
2015-Sep-20 09:33N 42°49' E 010°12'0 0.0
2015-Sep-20 08:22N 42°49' E 010°12'  

Dump ship's entire track history